DANE POGODOWE

WCZORAJ
Time Temp. Dewp. Hum. Kierunek Prędkość W Wind gust Bar.
00:19 -0.7 -3.7 78 251 0.8 2.2 1010.3
00:29 -0.6 -3.6 78 248 0.8 1.7 1010.2
00:39 -0.6 -3.6 78 225 0.8 1.7 1010.2
00:49 -0.6 -3.7 77 232 0.8 2.2 1010.1
00:59 -0.5 -3.5 78 270 0.8 2.2 1009.9
01:09 -0.4 -3.4 78 227 0.8 1.7 1009.8
01:19 -0.3 -3.4 77 270 0.3 2.2 1009.7
01:29 -0.3 -3.4 77 251 0.8 2.2 1010.1
01:40 -0.2 -3.3 77 270 0.8 1.7 1009.8
01:50 -0.2 -3.3 77 270 0.8 2.2 1009.9
01:59 -0.3 -3.4 77 251 0.8 1.7 1009.7
02:10 -0.3 -3.4 77 270 0.3 1.4 1009.5
02:20 -0.2 -3.2 78 315 0.3 0.8 1009.5
02:30 -0.2 -3.2 78 270 0.3 1.4 1009.4
02:40 -0.2 -3.2 78 270 0.3 1.1 1009.4
02:50 -0.2 -3.2 78 270 0.3 1.1 1009.1
03:00 -0.3 -3.3 78 270 0.3 0.8 1009
03:10 -0.3 -3.3 78 270 0.3 1.1 1009
03:21 -0.3 -3.1 79 270 0.3 1.4 1009
03:31 -0.3 -3.1 79 270 0.3 1.4 1008.9
03:40 -0.3 -3.1 79 270 0.3 1.1 1008.7
03:50 -0.3 -3.1 79 270 0.3 1.4 1008.7
04:01 -0.4 -3.2 79 270 0.3 1.1 1008.6
04:11 -0.4 -3.2 79 0 0.8 1008.5
04:21 -0.6 -3.3 80 45 0.3 0.8 1008.3
04:31 -0.7 -3.4 80 315 0.3 0.8 1008.3
04:41 -0.9 -3.6 80 270 0.3 0.8 1008.5
04:51 -0.8 -3.3 81 206 0.3 0.8 1008.2
05:01 -1 -3.7 80 270 0.3 1.1 1008.2
05:12 -1.3 -4 80 315 0.3 0.8 1008.2
05:22 -1.4 -3.9 81 0 0.8 1008.2
05:31 -1.4 -3.9 81 0 0.8 1008.3
05:41 -1.4 -3.9 81 270 0.3 0.8 1008.1
05:52 -1.5 -3.9 82 307 0.3 0.8 1008.1
06:02 -1.5 -3.9 82 225 0.3 0.8 1008.2
06:12 -1.6 -4 82 270 0.3 0.8 1008.2
06:22 -1.7 -4.1 82 270 0.3 0.8 1008.1
06:32 -1.8 -4.2 82 0 0.8 1007.9
06:42 -1.9 -4.3 82 0 0.8 1007.9
06:52 -2 -4.4 82 0 0.8 1007.9
07:03 -2.1 -4.5 82 270 0.3 1.1 1008
07:12 -2.2 -4.4 83 0 0.8 1007.9
07:22 -2.2 -4.4 83 225 0.3 0.8 1007.9
07:33 -2.3 -4.5 83 270 0.3 0.8 1008.1
07:43 -2.4 -4.5 84 0 0.3 1008
07:53 -2.5 -4.7 83 0 0.8 1008
08:03 -2.5 -4.6 84 0 0.8 1007.9
08:13 -2.5 -4.6 84 225 0.3 0.8 1007.5
08:23 -2.4 -4.3 85 270 0.3 0.8 1007.5
08:33 -2.3 -4.2 85 315 0.3 0.8 1007.4
08:43 -2.1 -3.9 86 0 0.3 1007.4
08:54 -1.9 -3.7 86 230 0.3 0.8 1007.4
09:03 -1.6 -3.4 86 315 0.3 0.8 1007.3
09:13 -1.2 -2.9 87 270 0.3 0.8 1007.2
09:24 -0.9 -2.6 87 231 0.3 1.1 1007.2
09:34 -0.6 -2.3 87 270 0.3 0.8 1007.2
09:44 -0.4 -2.2 86 270 0.3 1.1 1007.7
09:54 -0.2 -2 86 225 0.3 0.8 1007.7
10:09 0 -2 85 3 0.3 1.1 1007.8
10:19 0.1 -1.9 85 0 0.8 1007.7
10:29 0.3 -1.8 84 234 0.3 0.8 1007.5
10:40 0.4 -1.8 84 225 0.3 0.8 1007.5
10:49 0.5 -1.7 84 26 0.3 0.8 1007.7
10:59 0.7 -1.5 84 0 0.3 1007.3
11:10 0.8 -1.4 84 0 0.3 1007.3
11:30 1 -1.4 83 0 0.8 1007
11:40 1 -1.4 83 270 0.3 0.8 1007.1
11:50 1.1 -1.3 83 270 0.3 0.8 1007
12:00 1.1 -1.3 83 18 0.3 0.8 1006.9
12:10 1.2 -1.2 83 348 0.3 0.8 1006.5
12:20 1.3 -1.1 83 270 0.3 0.8 1006.3
12:31 1.4 -1 83 225 0.3 1.4 1006.4
12:40 1.6 -0.9 83 331 0.3 1.4 1006.2
12:50 1.8 -0.7 83 315 0.3 1.1 1006.2
13:01 1.9 -0.6 83 348 0.3 1.1 1005.7
13:11 2 -0.7 82 349 0.3 1.1 1006
13:21 2.1 -0.6 82 0 0.3 1.1 1005.8
13:31 2.1 -0.6 82 0 0.3 1.4 1005.7
13:41 2 -0.5 83 344 0.3 0.8 1005.8
13:51 2 -0.5 83 183 0.3 1.1 1005.6
14:01 2 -0.4 84 151 0.3 1.1 1005.4
14:12 2 -0.4 84 201 0.3 1.7 1005.3
14:22 2 -0.2 85 225 0.3 0.8 1005.3
14:31 2 -0.2 85 235 0.3 0.8 1005.3
14:41 2 -0.2 85 270 0.3 0.8 1005
14:52 2 -0.2 85 174 0.3 0.8 1005.2
15:02 2 -0.2 85 0 0.3 1005.2
15:12 1.9 -0.2 86 270 0.3 0.8 1005.3
15:22 1.8 -0.3 86 237 0.3 0.8 1005.2
15:32 1.7 -0.3 86 270 0.3 0.8 1005.3
15:42 1.5 -0.5 86 225 0.3 0.8 1005.4
15:52 1.4 -0.6 86 225 0.3 1.1 1005.6
16:03 1.3 -0.7 86 225 0.3 0.8 1005.6
16:17 1.1 -0.7 87 0 0.8 1005.7
16:27 1.1 -0.7 87 0 0.3 1005.8
16:38 1 -0.8 87 351 0.3 0.8 1005.6
16:48 1 -0.7 88 315 0.3 0.8 1005.6
16:58 1 -0.7 88 270 0.3 0.8 1006
17:08 1 -0.7 88 0 0.3 1006.1
17:18 1 -0.7 88 315 0.3 0.8 1006.1
17:28 1 -0.7 88 270 0.3 0.8 1006.4
17:38 0.9 -0.8 88 0 0.8 1006.5
17:49 1 -0.5 89 270 0.3 0.8 1006.6
17:59 1 -0.5 89 270 0.3 0.8 1006.6
18:08 1 -0.5 89 270 0.3 1.1 1006.8
18:18 1 -0.5 89 270 0.3 0.8 1006.6
18:29 1 -0.5 89 270 0.3 0.8 1006.5
18:39 1.1 -0.4 89 0 0.3 1006.9
18:49 1 -0.4 90 315 0.3 1.7 1006.9
18:59 1.1 -0.3 90 150 0.3 1.1 1007
19:09 1 -0.4 90 270 0.3 1.4 1007.1
19:19 1 -0.4 90 270 0.3 1.7 1007.1
19:29 0.9 -0.5 90 0 0.3 1007.1
19:40 1 -0.4 90 270 0.3 0.8 1007.2
19:50 1 -0.4 90 270 0.3 1.4 1007.4
19:59 0.9 -0.5 90 270 0.3 1.1 1007.4
20:10 0.9 -0.5 90 237 0.3 1.1 1007.5
20:30 0.9 -0.5 90 225 0.3 0.8 1007.8
20:40 0.9 -0.5 90 175 0.3 0.8 1007.9
20:50 0.9 -0.5 90 0 0.8 1008
21:00 0.9 -0.5 90 270 0.3 0.8 1008.1
21:10 0.9 -0.5 90 270 0.3 0.8 1008.3
21:20 0.9 -0.5 90 270 0.3 0.8 1008.2
21:31 0.9 -0.5 90 270 0.3 0.8 1008.5
21:40 0.9 -0.5 90 270 0.3 0.8 1008.3
21:50 0.9 -0.5 90 270 0.3 1.1 1008.5
22:01 0.9 -0.5 90 270 0.3 0.8 1008.3
22:11 0.9 -0.5 90 239 0.3 0.8 1008.8
22:21 0.9 -0.5 90 270 0.3 0.8 1008.9
22:31 0.8 -0.6 90 214 0.3 0.8 1008.8
22:41 0.8 -0.4 91 206 0.3 0.8 1008.8
22:51 0.8 -0.4 91 198 0.3 0.8 1009
23:01 0.8 -0.4 91 0 0.8 1009
23:12 0.8 -0.4 91 0 0.3 1009.1
23:21 0.8 -0.4 91 0 0.8 1009.4
23:31 0.8 -0.4 91 0 0.3 1009.4
23:41 0.7 -0.5 91 270 0.3 0.8 1009.5
23:52 0.7 -0.7 90 203 0.3 0.8 1009.4

STATYSTYKA DNIA

2019-12-09
TEMPERATURA
ŚREDNIA
0.2
MAKSIMUM
2.1
13:21
MINIMUM
-2.5
07:53
CIŚNIENIE
ŚREDNIA
1007.6
MAKSIMUM
1010.3
00:19
MINIMUM
1005.0
14:41
PUNKT ROSY
ŚREDNIA
-1.9
MAKSIMUM
-0.2
14:22
MINIMUM
-4.7
07:53
WILGOTNOŚĆ
ŚREDNIA
85
MAKSIMUM
91
22:41
MINIMUM
77
00:49
PRĘDKOŚĆ WIATRU
ŚREDNIA
0.3
MAKSIMUM
0.8
00:19
WIND GUST
ŚREDNIA
1.0
MAKSIMUM
2.2
00:19
KIERUNEK WIATRU
PREVAILING
W
41.3%
N
6.5
NE
1.4
E
0.0
SE
1.4
S
4.3
SW
17.4
W
41.3
NW
8.0
TEMPERATURA (°C)
MINIMUM
-2.5
MAKSIMUM
2.1
ŚREDNIA
0.2
CIŚNIENIE (hpa)
MINIMUM
1005.0
MAKSIMUM
1010.3
ŚREDNIA
1007.6
DEVICE